Time;durP1;ratioP1;P1;durP2;ratioP2;P2;SDS_P1;SDS_P2;PMS_P1;PMS_P2;Temp;Humidity;BMP_temperature;BMP_pressure;BME280_temperature;BME280_humidity;BME280_pressure;Samples;Min_cycle;Max_cycle;Signal;HPM_P1;HPM_P2
2023/09/19 00:01:57;;;;;;;9.40;3.88;;;;;;;17.72;55.40;95344.50;4933939;29;20140;-82
2023/09/19 00:04:28;;;;;;;4.80;3.25;;;;;;;17.76;55.50;95344.31;4931747;29;20023;-82
2023/09/19 00:06:54;;;;;;;6.40;4.57;;;;;;;17.73;55.46;95346.06;4934308;29;20515;-81
2023/09/19 00:09:19;;;;;;;4.97;3.60;;;;;;;17.80;55.45;95352.50;4932103;29;20691;-82
2023/09/19 00:11:47;;;;;;;4.00;3.30;;;;;;;17.81;55.60;95354.03;4933261;29;20118;-81
2023/09/19 00:14:14;;;;;;;5.45;3.75;;;;;;;17.75;55.43;95332.44;4917674;29;20023;-80
2023/09/19 00:16:41;;;;;;;5.65;3.22;;;;;;;17.76;55.74;95335.97;4932116;29;20510;-82
2023/09/19 00:19:08;;;;;;;7.60;3.45;;;;;;;17.87;55.30;95341.78;4933579;29;20042;-82
2023/09/19 00:21:35;;;;;;;4.30;3.40;;;;;;;17.81;55.34;95345.69;4948643;29;20042;-82
2023/09/19 00:24:01;;;;;;;5.72;3.13;;;;;;;17.79;55.78;95337.81;4933214;29;20486;-82
2023/09/19 00:26:30;;;;;;;6.43;3.15;;;;;;;17.71;55.79;95328.25;4948647;29;20079;-81
2023/09/19 00:28:57;;;;;;;3.92;3.28;;;;;;;17.70;56.03;95332.28;4933541;29;20027;-81
2023/09/19 00:31:22;;;;;;;4.85;3.20;;;;;;;17.63;56.22;95332.66;4932695;29;20052;-82
2023/09/19 00:33:48;;;;;;;6.72;3.50;;;;;;;17.60;56.45;95320.44;4931411;29;20446;-82
2023/09/19 00:36:14;;;;;;;5.20;2.92;;;;;;;17.56;56.64;95321.91;4933848;29;20463;-82
2023/09/19 00:38:39;;;;;;;5.65;3.50;;;;;;;17.28;56.94;95307.41;4915395;29;20027;-81
2023/09/19 00:41:05;;;;;;;5.45;3.72;;;;;;;17.34;57.22;95330.50;4932993;29;20486;-81
2023/09/19 00:43:34;;;;;;;5.13;3.50;;;;;;;17.39;57.14;95335.44;4948513;29;20027;-82
2023/09/19 00:46:00;;;;;;;5.28;3.78;;;;;;;17.38;56.97;95326.31;4917269;29;20038;-81
2023/09/19 00:48:28;;;;;;;8.80;3.55;;;;;;;17.39;57.11;95338.22;4931939;29;20086;-82
2023/09/19 00:50:54;;;;;;;4.72;3.30;;;;;;;17.38;57.18;95340.22;4932207;29;20074;-81
2023/09/19 00:53:22;;;;;;;4.45;3.60;;;;;;;17.28;57.59;95338.72;4932405;29;20031;-81
2023/09/19 00:55:49;;;;;;;4.85;3.70;;;;;;;17.24;57.61;95335.34;4931128;29;20023;-80
2023/09/19 00:58:16;;;;;;;6.88;3.33;;;;;;;17.27;57.50;95334.41;4932392;29;20383;-82
2023/09/19 01:00:44;;;;;;;5.30;3.75;;;;;;;17.28;57.42;95332.41;4930660;29;20458;-81
2023/09/19 01:03:10;;;;;;;6.65;3.65;;;;;;;17.30;57.26;95314.00;4932812;29;20051;-81
2023/09/19 01:05:36;;;;;;;5.75;3.60;;;;;;;17.39;57.53;95327.84;4914416;29;20031;-83
2023/09/19 01:08:01;;;;;;;5.78;3.70;;;;;;;17.34;57.67;95324.97;4916144;29;20027;-81
2023/09/19 01:10:27;;;;;;;5.22;4.13;;;;;;;17.31;57.63;95325.88;4932273;29;20616;-80
2023/09/19 01:13:12;;;;;;;5.70;3.85;;;;;;;17.22;57.94;95330.25;4914896;29;20509;-81
2023/09/19 01:16:16;;;;;;;5.13;3.90;;;;;;;17.28;57.92;95344.28;4932402;29;20027;-80
2023/09/19 01:19:02;;;;;;;6.20;4.07;;;;;;;17.26;57.87;95332.84;4948544;29;20035;-80
2023/09/19 01:21:31;;;;;;;6.75;3.60;;;;;;;17.28;58.00;95338.72;4914670;29;20102;-81
2023/09/19 01:24:36;;;;;;;7.15;4.00;;;;;;;17.24;57.67;95344.44;4932067;29;20035;-81
2023/09/19 01:27:19;;;;;;;8.15;3.85;;;;;;;17.20;58.14;95340.28;4930357;29;20102;-80
2023/09/19 01:29:49;;;;;;;5.95;3.92;;;;;;;17.24;58.09;95343.69;4948607;29;20110;-81
2023/09/19 01:32:19;;;;;;;5.75;3.95;;;;;;;17.18;58.14;95340.00;4931587;29;20080;-81
2023/09/19 01:34:50;;;;;;;6.68;3.90;;;;;;;17.17;57.87;95339.25;4930504;29;20031;-81
2023/09/19 01:37:20;;;;;;;6.30;4.43;;;;;;;17.12;57.90;95333.56;4931730;29;20028;-82
2023/09/19 01:39:50;;;;;;;5.20;4.03;;;;;;;17.11;58.08;95341.13;4914292;29;20035;-80
2023/09/19 01:42:24;;;;;;;9.50;4.50;;;;;;;17.10;57.66;95347.16;4948815;29;20359;-81
2023/09/19 01:45:04;;;;;;;4.50;3.80;;;;;;;16.98;58.56;95335.00;4915341;29;20370;-81
2023/09/19 01:47:35;;;;;;;5.68;4.22;;;;;;;16.97;58.63;95337.03;4930117;29;20141;-80
2023/09/19 01:50:36;;;;;;;6.82;4.55;;;;;;;17.04;58.08;95346.25;4915921;29;20510;-81
2023/09/19 01:53:09;;;;;;;9.27;4.70;;;;;;;16.99;57.98;95344.88;4946262;29;20039;-81
2023/09/19 01:55:38;;;;;;;7.70;4.80;;;;;;;16.92;57.99;95340.44;4931684;29;20332;-81
2023/09/19 01:58:07;;;;;;;7.30;5.22;;;;;;;16.92;58.03;95334.88;4948660;29;20043;-81
2023/09/19 02:00:35;;;;;;;5.70;4.60;;;;;;;16.90;57.94;95337.34;4913953;29;20525;-81
2023/09/19 02:03:00;;;;;;;5.75;4.80;;;;;;;16.90;58.41;95329.00;4931722;29;20057;-82
2023/09/19 02:05:27;;;;;;;6.13;4.82;;;;;;;16.89;58.48;95338.59;4929423;29;20083;-81
2023/09/19 02:07:53;;;;;;;6.28;4.40;;;;;;;16.88;58.59;95336.28;4915833;29;20031;-81
2023/09/19 02:10:19;;;;;;;6.72;4.88;;;;;;;16.88;58.46;95341.84;4913990;29;20517;-82
2023/09/19 02:12:45;;;;;;;6.57;4.68;;;;;;;16.90;58.21;95336.56;4915324;29;20034;-80
2023/09/19 02:15:11;;;;;;;7.78;5.25;;;;;;;16.87;58.05;95345.84;4948112;28;20038;-81
2023/09/19 02:17:36;;;;;;;8.13;5.15;;;;;;;16.83;58.19;95343.22;4913844;29;20507;-82
2023/09/19 02:20:03;;;;;;;10.05;5.60;;;;;;;16.83;58.33;95336.91;4931431;29;20032;-81
2023/09/19 02:22:29;;;;;;;7.32;4.80;;;;;;;16.83;58.55;95334.13;4913976;29;20023;-81
2023/09/19 02:24:58;;;;;;;7.68;4.82;;;;;;;16.85;58.50;95323.31;4915653;29;20045;-80
2023/09/19 02:27:23;;;;;;;7.43;5.13;;;;;;;16.84;58.39;95327.34;4913932;29;20415;-81
2023/09/19 02:29:49;;;;;;;5.53;4.50;;;;;;;16.85;58.75;95337.19;4949086;29;20019;-80
2023/09/19 02:32:14;;;;;;;7.35;5.00;;;;;;;16.73;58.81;95333.38;4914494;29;20066;-80
2023/09/19 02:34:41;;;;;;;8.68;5.15;;;;;;;16.70;58.97;95324.00;4914532;29;20119;-79
2023/09/19 02:37:08;;;;;;;10.35;5.32;;;;;;;16.67;58.79;95319.34;4915486;29;20038;-79
2023/09/19 02:39:34;;;;;;;7.20;5.32;;;;;;;16.62;59.19;95313.66;4929783;29;20027;-81
2023/09/19 02:41:59;;;;;;;9.02;5.35;;;;;;;16.60;59.55;95311.34;4931431;29;20049;-81
2023/09/19 02:44:25;;;;;;;6.03;5.10;;;;;;;16.60;59.25;95308.56;4913243;29;20051;-80
2023/09/19 02:46:51;;;;;;;6.95;4.90;;;;;;;16.59;59.49;95309.81;4931250;29;20118;-80
2023/09/19 02:49:17;;;;;;;6.18;4.90;;;;;;;16.57;59.29;95306.72;4913518;29;20064;-80
2023/09/19 02:51:43;;;;;;;9.20;5.45;;;;;;;16.54;59.05;95304.13;4930807;29;20536;-81
2023/09/19 02:54:09;;;;;;;6.88;5.57;;;;;;;16.52;58.93;95304.59;4947903;29;20050;-80
2023/09/19 02:56:35;;;;;;;8.38;5.70;;;;;;;16.50;58.99;95303.53;4946744;29;20051;-81
2023/09/19 02:59:00;;;;;;;10.35;5.35;;;;;;;16.50;58.92;95301.50;4915501;29;20035;-80
2023/09/19 03:01:28;;;;;;;11.82;5.28;;;;;;;16.46;59.10;95298.91;4929176;29;20035;-78
2023/09/19 03:03:53;;;;;;;8.45;5.60;;;;;;;16.42;58.98;95292.75;4915349;29;20517;-80
2023/09/19 03:06:19;;;;;;;14.30;7.13;;;;;;;16.39;58.93;95290.13;4913574;29;20502;-80
2023/09/19 03:08:46;;;;;;;8.77;5.60;;;;;;;16.33;58.76;95290.00;4915071;29;20600;-80
2023/09/19 03:11:14;;;;;;;9.50;6.47;;;;;;;16.38;58.93;95297.69;4930038;29;20031;-81
2023/09/19 03:13:42;;;;;;;9.45;5.88;;;;;;;16.30;59.01;95290.16;4929985;29;20452;-81
2023/09/19 03:16:07;;;;;;;7.72;6.10;;;;;;;16.26;58.92;95289.56;4915092;29;20502;-79
2023/09/19 03:18:36;;;;;;;7.40;5.75;;;;;;;16.31;58.81;95295.25;4912994;29;20065;-80
2023/09/19 03:21:01;;;;;;;10.75;6.05;;;;;;;16.25;59.00;95288.03;4931178;29;20027;-79
2023/09/19 03:23:28;;;;;;;13.52;6.15;;;;;;;16.18;58.92;95291.88;4946104;29;20086;-79
2023/09/19 03:25:54;;;;;;;9.38;6.05;;;;;;;16.21;58.97;95288.16;4947819;29;20034;-78
2023/09/19 03:28:21;;;;;;;8.45;6.18;;;;;;;16.15;59.44;95279.69;4931555;29;20057;-81
2023/09/19 03:30:58;;;;;;;7.38;6.13;;;;;;;16.14;59.37;95297.59;4933777;29;20058;-80
2023/09/19 03:33:23;;;;;;;9.27;5.72;;;;;;;16.13;59.23;95289.75;4918164;29;20577;-81
2023/09/19 03:35:55;;;;;;;7.40;5.95;;;;;;;16.08;59.29;95290.34;4931863;29;20122;-81
2023/09/19 03:38:21;;;;;;;11.15;6.25;;;;;;;16.06;59.06;95296.38;4918370;29;20050;-81
2023/09/19 03:40:47;;;;;;;10.32;5.50;;;;;;;16.05;59.44;95294.03;4932115;29;20054;-80
2023/09/19 03:43:13;;;;;;;7.93;6.15;;;;;;;16.03;59.52;95305.59;4918113;29;20027;-80
2023/09/19 03:45:38;;;;;;;9.73;6.80;;;;;;;16.01;59.44;95307.31;4932382;29;20030;-80
2023/09/19 03:48:13;;;;;;;7.75;6.40;;;;;;;16.02;59.51;95315.16;4933188;29;20113;-81
2023/09/19 03:50:39;;;;;;;9.32;6.53;;;;;;;16.00;59.64;95317.66;4933472;29;20458;-81
2023/09/19 03:53:04;;;;;;;11.25;6.97;;;;;;;15.97;59.90;95304.69;4932219;29;20027;-80
2023/09/19 03:55:30;;;;;;;7.65;6.38;;;;;;;15.96;59.67;95311.47;4951068;29;20149;-80
2023/09/19 03:57:56;;;;;;;11.43;6.25;;;;;;;15.89;59.83;95301.47;4931535;29;20035;-81
2023/09/19 04:00:24;;;;;;;8.52;5.97;;;;;;;15.78;60.69;95292.84;4951152;29;20034;-81
2023/09/19 04:02:51;;;;;;;9.07;5.20;;;;;;;15.76;60.67;95305.63;4932090;29;20039;-83
2023/09/19 04:05:17;;;;;;;7.22;5.68;;;;;;;15.78;60.22;95317.03;4917501;29;20064;-87
2023/09/19 04:07:42;;;;;;;7.20;5.88;;;;;;;15.74;60.13;95322.72;4934499;29;20122;-87
2023/09/19 04:10:10;;;;;;;8.57;5.63;;;;;;;15.76;60.47;95331.31;4933564;29;20110;-86
2023/09/19 04:12:35;;;;;;;12.32;6.05;;;;;;;15.74;60.40;95330.25;4934788;29;20308;-85
2023/09/19 04:15:00;;;;;;;7.55;5.75;;;;;;;15.75;60.57;95320.72;4932046;29;20672;-83
2023/09/19 04:17:26;;;;;;;8.60;6.00;;;;;;;15.75;60.58;95315.16;4933506;29;20169;-79
2023/09/19 04:19:51;;;;;;;8.85;6.18;;;;;;;15.75;60.68;95315.94;4931881;29;20086;-80
2023/09/19 04:22:17;;;;;;;7.82;5.90;;;;;;;15.74;60.79;95311.63;4917429;29;20031;-80
2023/09/19 04:24:42;;;;;;;7.35;5.82;;;;;;;15.76;60.53;95314.69;4932239;29;20095;-80
2023/09/19 04:27:09;;;;;;;10.73;6.53;;;;;;;15.79;60.69;95313.03;4932260;29;20055;-79
2023/09/19 04:29:35;;;;;;;12.70;6.30;;;;;;;15.81;60.73;95316.09;4933294;29;20039;-80
2023/09/19 04:32:00;;;;;;;14.52;7.00;;;;;;;15.82;60.63;95310.06;4915507;29;20034;-81
2023/09/19 04:34:26;;;;;;;9.10;6.68;;;;;;;15.85;60.41;95305.63;4917172;29;20102;-80
2023/09/19 04:36:52;;;;;;;9.55;6.55;;;;;;;15.87;60.39;95317.78;4915340;29;20042;-79
2023/09/19 04:39:18;;;;;;;11.82;6.75;;;;;;;15.84;60.30;95304.09;4930396;29;20043;-85
2023/09/19 04:41:44;;;;;;;12.57;6.82;;;;;;;15.81;60.21;95308.53;4915613;29;20031;-86
2023/09/19 04:44:10;;;;;;;11.77;7.40;;;;;;;15.87;60.02;95308.69;4917392;29;20118;-84
2023/09/19 04:46:35;;;;;;;9.55;6.97;;;;;;;15.92;60.09;95313.63;4916580;29;20119;-85
2023/09/19 04:49:05;;;;;;;9.07;6.65;;;;;;;15.96;59.91;95299.63;4916020;29;20086;-84
2023/09/19 04:51:34;;;;;;;10.75;6.65;;;;;;;15.95;59.74;95301.63;4932808;29;20027;-84
2023/09/19 04:54:00;;;;;;;11.13;6.75;;;;;;;16.01;59.84;95305.31;4930987;29;20118;-83
2023/09/19 04:56:25;;;;;;;12.90;6.45;;;;;;;16.04;60.02;95298.06;4932786;29;20031;-84
2023/09/19 04:58:51;;;;;;;10.23;6.55;;;;;;;16.07;59.68;95299.91;4914548;29;20561;-83
2023/09/19 05:01:17;;;;;;;12.68;6.55;;;;;;;16.13;59.79;95303.59;4932375;29;20544;-82
2023/09/19 05:03:42;;;;;;;13.48;7.53;;;;;;;16.20;60.02;95309.59;4915905;29;20561;-84
2023/09/19 05:06:11;;;;;;;11.05;6.50;;;;;;;16.23;59.74;95304.34;4931116;29;20046;-82
2023/09/19 05:08:36;;;;;;;9.57;7.07;;;;;;;16.29;59.85;95294.19;4932204;29;20063;-79
2023/09/19 05:11:02;;;;;;;13.80;7.10;;;;;;;16.34;59.85;95293.53;4930251;29;20071;-80
2023/09/19 05:13:27;;;;;;;12.13;6.68;;;;;;;16.43;59.74;95301.84;4916780;29;20023;-81
2023/09/19 05:15:52;;;;;;;12.90;6.95;;;;;;;16.54;59.43;95304.13;4947184;29;20027;-80
2023/09/19 05:18:18;;;;;;;11.27;6.85;;;;;;;16.56;59.49;95313.50;4930901;29;20045;-82
2023/09/19 05:20:44;;;;;;;10.82;6.75;;;;;;;16.63;59.40;95306.88;4913189;29;20034;-81
2023/09/19 05:23:12;;;;;;;9.80;6.78;;;;;;;16.72;59.30;95309.66;4948227;29;20387;-81
2023/09/19 05:25:38;;;;;;;12.07;7.55;;;;;;;16.80;59.19;95304.53;4930954;29;20031;-81
2023/09/19 05:28:08;;;;;;;10.88;7.55;;;;;;;16.87;59.16;95310.53;4929720;29;20050;-80
2023/09/19 05:30:35;;;;;;;13.55;7.00;;;;;;;16.93;59.00;95296.78;4931857;29;20023;-81
2023/09/19 05:33:02;;;;;;;9.07;6.47;;;;;;;17.04;58.99;95291.47;4930212;29;20031;-82
2023/09/19 05:35:28;;;;;;;9.45;6.22;;;;;;;17.08;58.88;95289.28;4931954;29;20023;-81
2023/09/19 05:37:55;;;;;;;11.05;6.63;;;;;;;17.12;58.58;95289.09;4914260;29;20122;-82
2023/09/19 05:40:20;;;;;;;9.10;5.38;;;;;;;17.19;58.98;95285.97;4914782;29;20335;-80
2023/09/19 05:42:46;;;;;;;10.23;5.47;;;;;;;17.34;58.65;95286.06;4930715;29;20551;-82
2023/09/19 05:45:12;;;;;;;7.90;5.53;;;;;;;17.38;58.60;95286.66;4930414;29;20038;-80
2023/09/19 05:47:43;;;;;;;7.30;4.47;;;;;;;17.48;57.84;95280.53;4915245;29;20418;-82
2023/09/19 05:50:09;;;;;;;6.82;5.13;;;;;;;17.57;57.62;95288.06;4929859;29;20031;-81
2023/09/19 05:52:36;;;;;;;8.45;5.25;;;;;;;17.63;57.83;95285.41;4931683;29;20122;-82
2023/09/19 05:55:05;;;;;;;10.80;5.20;;;;;;;17.74;57.28;95280.09;4928784;29;20034;-79
2023/09/19 05:57:33;;;;;;;6.95;4.60;;;;;;;17.82;57.24;95288.81;4931672;29;20073;-79
2023/09/19 05:59:59;;;;;;;6.47;4.47;;;;;;;17.89;56.63;95271.75;4914483;29;20092;-79
2023/09/19 06:02:28;;;;;;;9.55;4.57;;;;;;;18.07;56.38;95279.19;4930265;29;20031;-80
2023/09/19 06:04:55;;;;;;;6.65;4.68;;;;;;;18.09;56.80;95276.69;4931006;29;20482;-83
2023/09/19 06:07:22;;;;;;;8.45;4.45;;;;;;;18.18;56.74;95273.81;4929940;29;20450;-80
2023/09/19 06:09:47;;;;;;;9.25;4.45;;;;;;;18.20;56.91;95277.66;4948717;29;20035;-80
2023/09/19 06:12:15;;;;;;;7.65;4.32;;;;;;;18.31;55.98;95263.19;4913710;29;20395;-80
2023/09/19 06:14:41;;;;;;;9.93;4.97;;;;;;;18.43;55.64;95273.25;4932121;29;20035;-80
2023/09/19 06:17:06;;;;;;;7.20;4.25;;;;;;;18.48;55.40;95263.47;4929914;29;20430;-80
2023/09/19 06:19:32;;;;;;;7.53;4.35;;;;;;;18.53;54.95;95257.22;4949103;29;20039;-81
2023/09/19 06:21:59;;;;;;;7.93;4.53;;;;;;;18.69;54.60;95272.69;4930932;29;20031;-80
2023/09/19 06:24:25;;;;;;;5.80;4.35;;;;;;;18.74;54.46;95260.84;4930752;29;20027;-81
2023/09/19 06:26:52;;;;;;;9.00;4.88;;;;;;;18.89;54.61;95263.63;4915276;29;20047;-80
2023/09/19 06:29:18;;;;;;;8.73;5.72;;;;;;;18.99;53.96;95256.69;4929741;29;20027;-81
2023/09/19 06:31:44;;;;;;;6.82;4.50;;;;;;;19.07;53.86;95258.56;4931530;29;20482;-80
2023/09/19 06:34:10;;;;;;;8.18;4.38;;;;;;;19.15;53.32;95258.16;4929728;29;20027;-79
2023/09/19 06:36:35;;;;;;;7.93;4.25;;;;;;;19.15;53.15;95247.78;4915171;29;20263;-82
2023/09/19 06:39:01;;;;;;;8.10;4.60;;;;;;;19.30;53.12;95264.47;4914435;29;20035;-81
2023/09/19 06:41:26;;;;;;;10.10;4.55;;;;;;;19.39;52.57;95260.78;4914829;29;20058;-81
2023/09/19 06:43:53;;;;;;;11.20;4.70;;;;;;;19.46;52.46;95263.16;4930842;29;20387;-82
2023/09/19 06:46:19;;;;;;;19.75;5.90;;;;;;;19.52;52.26;95261.19;4929372;29;20031;-81
2023/09/19 06:48:44;;;;;;;12.57;5.78;;;;;;;19.62;52.36;95268.22;4948295;29;20023;-81
2023/09/19 06:51:10;;;;;;;11.00;4.72;;;;;;;19.72;51.90;95268.81;4929473;29;20491;-80
2023/09/19 06:53:36;;;;;;;7.43;4.00;;;;;;;19.76;51.83;95269.38;4930711;29;20465;-81
2023/09/19 06:56:02;;;;;;;7.97;4.93;;;;;;;19.83;51.48;95271.72;4929705;29;20509;-82
2023/09/19 06:58:27;;;;;;;8.80;4.78;;;;;;;19.89;51.07;95262.16;4930474;29;20038;-79
2023/09/19 07:00:54;;;;;;;10.48;5.93;;;;;;;19.97;50.97;95270.91;4929989;29;20051;-82
2023/09/19 07:03:21;;;;;;;5.47;4.40;;;;;;;20.10;50.58;95285.22;4931764;29;20410;-81
2023/09/19 07:05:47;;;;;;;5.65;4.20;;;;;;;20.11;50.72;95280.41;4934591;29;20024;-82
2023/09/19 07:08:14;;;;;;;7.93;4.20;;;;;;;20.19;50.28;95277.97;4932846;29;20486;-81
2023/09/19 07:10:49;;;;;;;6.65;4.22;;;;;;;20.26;50.28;95283.13;4918342;29;20027;-81
2023/09/19 07:13:16;;;;;;;6.18;3.97;;;;;;;20.30;49.76;95280.84;4918276;29;20130;-81
2023/09/19 07:15:46;;;;;;;7.78;4.20;;;;;;;20.36;49.97;95293.63;4934354;29;20027;-82
2023/09/19 07:18:14;;;;;;;6.47;4.30;;;;;;;20.48;49.22;95279.81;4950528;29;20058;-80
2023/09/19 07:20:45;;;;;;;6.55;4.07;;;;;;;20.53;49.23;95282.66;4950382;29;20187;-82
2023/09/19 07:23:13;;;;;;;6.43;3.50;;;;;;;20.51;49.39;95282.34;4918613;29;20578;-83
2023/09/19 07:25:39;;;;;;;6.55;3.33;;;;;;;20.49;49.47;95282.09;4932135;29;20129;-82
2023/09/19 07:28:04;;;;;;;9.00;4.35;;;;;;;20.48;49.14;95274.22;4934077;29;20133;-82
2023/09/19 07:30:30;;;;;;;6.88;3.92;;;;;;;20.56;49.22;95286.47;4932154;29;20019;-81
2023/09/19 07:32:55;;;;;;;5.55;3.85;;;;;;;20.62;49.17;95290.84;4917955;29;20031;-81
2023/09/19 07:35:21;;;;;;;7.15;4.18;;;;;;;20.68;48.89;95283.28;4932612;29;20118;-81
2023/09/19 07:37:51;;;;;;;8.50;4.00;;;;;;;20.79;48.76;95290.22;4917209;29;20069;-81
2023/09/19 07:40:17;;;;;;;6.43;4.20;;;;;;;20.81;48.76;95279.31;4934023;29;20487;-82
2023/09/19 07:42:44;;;;;;;8.00;4.28;;;;;;;20.87;48.75;95282.91;4932170;29;20141;-81
2023/09/19 07:45:14;;;;;;;10.60;4.10;;;;;;;20.97;48.04;95289.09;4918257;29;20114;-82
2023/09/19 07:47:50;;;;;;;6.40;4.22;;;;;;;21.03;48.28;95284.28;4916497;29;20501;-80
2023/09/19 07:50:18;;;;;;;9.45;4.28;;;;;;;21.06;48.30;95291.69;4933250;29;20399;-82
2023/09/19 07:52:44;;;;;;;6.18;4.22;;;;;;;21.17;47.74;95289.75;4916827;29;20614;-82
2023/09/19 07:55:11;;;;;;;6.22;3.90;;;;;;;21.26;47.61;95291.56;4933177;29;20019;-81
2023/09/19 07:57:37;;;;;;;5.55;4.20;;;;;;;21.31;47.37;95293.66;4950234;29;20094;-81
2023/09/19 08:00:04;;;;;;;6.90;4.00;;;;;;;21.33;47.02;95284.75;4916352;29;20019;-80
2023/09/19 08:02:34;;;;;;;6.97;3.90;;;;;;;21.32;47.14;95272.06;4933566;29;20063;-82
2023/09/19 08:05:00;;;;;;;5.20;3.95;;;;;;;21.39;47.07;95268.78;4949412;29;20023;-83
2023/09/19 08:07:26;;;;;;;7.97;4.00;;;;;;;21.54;46.16;95265.81;4933970;29;20027;-81
2023/09/19 08:09:51;;;;;;;7.18;3.55;;;;;;;21.60;46.24;95269.41;4916334;29;20027;-82
2023/09/19 08:12:17;;;;;;;8.18;3.75;;;;;;;21.69;46.07;95263.59;4917241;29;20406;-82
2023/09/19 08:14:43;;;;;;;8.85;3.67;;;;;;;21.60;45.93;95261.78;4932451;29;20533;-82
2023/09/19 08:17:08;;;;;;;5.38;3.75;;;;;;;21.64;46.03;95258.75;4932178;29;20119;-81
2023/09/19 08:19:34;;;;;;;4.22;3.22;;;;;;;21.75;45.83;95264.41;4932960;29;20031;-81
2023/09/19 08:22:00;;;;;;;8.18;4.22;;;;;;;21.91;45.62;95246.91;4949116;29;20458;-82
2023/09/19 08:24:28;;;;;;;5.25;4.03;;;;;;;22.05;45.53;95247.19;4933169;29;20146;-82
2023/09/19 08:26:54;;;;;;;7.82;4.03;;;;;;;22.18;45.48;95253.09;4931359;29;20425;-82
2023/09/19 08:29:20;;;;;;;8.02;4.10;;;;;;;22.27;44.52;95259.22;4932707;29;20114;-81
2023/09/19 08:31:47;;;;;;;6.10;4.35;;;;;;;22.36;44.78;95257.44;4916001;29;20069;-83
2023/09/19 08:34:13;;;;;;;6.75;3.70;;;;;;;22.45;44.35;95262.81;4916265;29;20027;-81
2023/09/19 08:36:39;;;;;;;4.47;3.80;;;;;;;22.61;44.47;95262.06;4932396;29;20039;-82
2023/09/19 08:39:04;;;;;;;5.03;3.85;;;;;;;22.75;44.04;95265.88;4948787;29;20090;-81
2023/09/19 08:41:30;;;;;;;7.72;4.13;;;;;;;22.91;43.74;95255.97;4916927;29;20038;-81
2023/09/19 08:44:01;;;;;;;6.55;3.90;;;;;;;23.02;43.57;95258.78;4930907;29;20027;-81
2023/09/19 08:46:30;;;;;;;7.72;4.10;;;;;;;23.11;43.50;95252.13;4933339;29;20039;-81
2023/09/19 08:49:03;;;;;;;6.78;4.25;;;;;;;23.15;43.06;95233.00;4931380;29;20055;-81
2023/09/19 08:51:46;;;;;;;6.35;4.20;;;;;;;23.30;42.86;95239.84;4915911;29;20027;-81
2023/09/19 08:54:31;;;;;;;8.53;4.03;;;;;;;23.43;42.48;95244.16;4932820;29;20459;-81
2023/09/19 08:57:02;;;;;;;5.35;3.78;;;;;;;23.41;42.45;95238.31;4930542;29;20027;-80
2023/09/19 08:59:29;;;;;;;9.75;4.18;;;;;;;23.52;41.98;95250.25;4932426;29;20027;-79
2023/09/19 09:01:55;;;;;;;7.22;4.10;;;;;;;23.59;42.17;95241.28;4930947;29;20467;-81
2023/09/19 09:04:22;;;;;;;6.05;3.40;;;;;;;23.72;41.65;95245.59;4931806;29;20023;-81
2023/09/19 09:06:50;;;;;;;7.00;3.97;;;;;;;23.77;41.50;95239.97;4931743;29;20057;-82
2023/09/19 09:09:17;;;;;;;9.38;3.80;;;;;;;23.84;41.12;95239.41;4931230;29;20090;-80
2023/09/19 09:11:42;;;;;;;7.68;4.10;;;;;;;24.02;41.23;95248.53;4932217;29;20061;-80
2023/09/19 09:14:07;;;;;;;7.55;3.65;;;;;;;24.09;41.54;95243.13;4929679;29;20046;-79
2023/09/19 09:16:34;;;;;;;7.18;4.57;;;;;;;24.31;40.80;95236.59;4932446;29;20035;-81
2023/09/19 09:18:59;;;;;;;6.43;4.25;;;;;;;24.58;39.94;95231.34;4931197;29;20106;-81
2023/09/19 09:21:25;;;;;;;6.07;3.72;;;;;;;24.61;39.81;95225.44;4931546;29;20027;-81
2023/09/19 09:23:52;;;;;;;6.53;4.30;;;;;;;24.70;39.57;95215.91;4948236;29;20023;-81
2023/09/19 09:26:39;;;;;;;6.68;4.30;;;;;;;24.83;39.42;95223.72;4914470;29;20058;-82
2023/09/19 09:29:04;;;;;;;6.25;4.50;;;;;;;24.90;39.26;95225.97;4935344;29;20119;-81
2023/09/19 09:31:30;;;;;;;6.68;4.70;;;;;;;24.92;39.25;95222.63;4947570;29;20573;-81
2023/09/19 09:33:57;;;;;;;8.48;4.85;;;;;;;24.90;38.54;95215.50;4948850;29;20039;-80
2023/09/19 09:36:41;;;;;;;6.53;4.78;;;;;;;24.67;39.03;95202.91;4929784;29;20059;-82
2023/09/19 09:39:18;;;;;;;9.65;4.88;;;;;;;24.92;39.12;95200.13;4931060;29;20024;-82
2023/09/19 09:41:43;;;;;;;8.18;4.65;;;;;;;25.22;38.79;95200.09;4932755;29;20038;-81
2023/09/19 09:44:15;;;;;;;7.40;4.20;;;;;;;25.54;38.38;95197.47;4929875;29;20027;-81
2023/09/19 09:49:32;;;;;;;7.78;4.72;;;;;;;25.34;37.40;95199.44;4930422;29;20035;-82
2023/09/19 09:52:23;;;;;;;6.20;4.20;;;;;;;25.34;38.39;95201.50;4915703;29;20027;-82
2023/09/19 09:55:05;;;;;;;7.60;4.40;;;;;;;25.34;37.94;95207.13;4934115;29;20033;-83
2023/09/19 09:57:31;;;;;;;6.07;3.90;;;;;;;25.33;38.27;95200.75;4930244;29;20027;-82
2023/09/19 10:02:36;;;;;;;7.30;4.32;;;;;;;25.36;38.50;95193.31;4932532;29;20126;-82
2023/09/19 10:07:55;;;;;;;16.65;5.70;;;;;;;25.35;38.32;95191.81;4948784;29;20039;-82
2023/09/19 10:10:37;;;;;;;14.63;5.60;;;;;;;25.25;38.58;95185.75;4914119;29;20075;-82
2023/09/19 10:13:07;;;;;;;10.13;4.93;;;;;;;25.25;38.10;95182.94;4931066;29;20119;-82
2023/09/19 10:15:33;;;;;;;12.10;4.93;;;;;;;25.18;38.37;95177.16;4930814;29;20090;-82
2023/09/19 10:18:01;;;;;;;7.25;4.45;;;;;;;25.26;38.05;95190.09;4930370;29;20027;-81
2023/09/19 10:20:37;;;;;;;10.32;5.28;;;;;;;25.32;38.33;95190.03;4930953;29;20023;-82
2023/09/19 10:23:11;;;;;;;11.27;6.40;;;;;;;25.47;38.41;95187.56;4930779;29;20114;-82
2023/09/19 10:25:41;;;;;;;16.75;7.13;;;;;;;25.45;38.55;95176.06;4915515;29;20486;-82
2023/09/19 10:28:11;;;;;;;16.65;5.35;;;;;;;25.46;38.52;95185.25;4913501;29;20055;-83
2023/09/19 10:30:44;;;;;;;6.63;4.32;;;;;;;25.31;38.27;95186.47;4931100;29;20028;-82
2023/09/19 10:33:12;;;;;;;9.25;4.43;;;;;;;25.33;38.21;95188.72;4930302;29;20502;-82
2023/09/19 10:35:45;;;;;;;6.63;4.40;;;;;;;25.23;38.69;95179.88;4930241;29;20074;-82
2023/09/19 10:38:12;;;;;;;8.30;4.55;;;;;;;25.20;38.72;95185.81;4933948;29;20062;-83
2023/09/19 10:40:47;;;;;;;8.27;4.10;;;;;;;25.12;38.24;95177.97;4933595;29;20023;-82
2023/09/19 10:43:19;;;;;;;7.65;4.50;;;;;;;25.20;38.17;95183.00;4936069;29;20054;-82
2023/09/19 10:45:46;;;;;;;5.50;4.18;;;;;;;25.11;38.64;95167.22;4918515;29;20073;-83
2023/09/19 10:48:12;;;;;;;6.97;4.28;;;;;;;25.12;38.87;95158.28;4918191;29;20035;-82
2023/09/19 10:50:50;;;;;;;7.40;5.15;;;;;;;25.16;38.64;95158.75;4918293;29;20023;-82
2023/09/19 10:53:16;;;;;;;7.72;4.68;;;;;;;25.18;38.57;95154.66;4950431;29;20122;-82
2023/09/19 10:55:50;;;;;;;6.22;4.15;;;;;;;25.06;38.71;95154.00;4934768;29;20046;-82
2023/09/19 10:58:25;;;;;;;10.85;4.78;;;;;;;25.11;38.77;95153.94;4917027;29;20043;-82
2023/09/19 11:00:55;;;;;;;6.97;4.32;;;;;;;25.11;38.78;95158.78;4934225;29;20035;-82
2023/09/19 11:03:23;;;;;;;8.27;4.63;;;;;;;25.17;38.80;95159.50;4917636;29;20028;-82
2023/09/19 11:06:09;;;;;;;6.82;3.88;;;;;;;25.13;38.86;95154.19;4949713;29;20033;-82
2023/09/19 11:08:57;;;;;;;6.10;4.53;;;;;;;25.21;38.49;95147.97;4934305;29;20030;-82
2023/09/19 11:11:41;;;;;;;9.30;4.95;;;;;;;25.27;38.44;95149.41;4949971;29;20039;-82
2023/09/19 11:14:25;;;;;;;5.57;4.70;;;;;;;25.39;38.16;95153.59;4950751;29;20158;-83
2023/09/19 11:17:40;;;;;;;8.48;4.32;;;;;;;25.48;37.92;95149.69;4951071;29;20035;-81
2023/09/19 11:22:48;;;;;;;6.70;4.50;;;;;;;25.41;37.50;95144.66;4950868;29;20031;-82
2023/09/19 11:25:34;;;;;;;9.05;4.05;;;;;;;25.35;37.88;95141.16;4950664;29;20035;-83
2023/09/19 11:28:05;;;;;;;7.65;4.10;;;;;;;25.54;38.07;95135.53;4949907;29;20047;-82
2023/09/19 11:30:39;;;;;;;7.20;4.13;;;;;;;25.78;37.22;95126.28;4951060;29;20038;-82
2023/09/19 11:33:41;;;;;;;8.43;4.22;;;;;;;25.97;37.04;95120.63;4932764;29;20027;-83
2023/09/19 11:36:24;;;;;;;6.65;3.70;;;;;;;26.13;36.96;95116.81;4932922;29;20035;-82
2023/09/19 11:38:57;;;;;;;5.80;4.05;;;;;;;26.19;36.75;95111.84;4918978;29;20042;-82
2023/09/19 11:41:25;;;;;;;;;;;;;;;26.24;36.66;95108.16;4932572;29;20023;-82
2023/09/19 11:43:51;;;;;;;5.80;3.70;;;;;;;26.27;36.52;95100.72;4950740;29;19950;-82
2023/09/19 11:46:21;;;;;;;7.50;4.18;;;;;;;26.27;37.00;95098.66;4915581;29;20489;-82
2023/09/19 11:48:49;;;;;;;6.60;3.80;;;;;;;26.14;36.76;95076.81;4932584;29;20038;-84
2023/09/19 11:51:23;;;;;;;7.45;4.43;;;;;;;26.32;36.58;95097.03;4917345;29;20494;-83